createdAt,value
2023-04-22T00:00:36.459Z,13.38
2023-04-22T00:03:05.725Z,13.26
2023-04-22T00:05:33.630Z,12.79
2023-04-22T00:08:01.815Z,12.82
2023-04-22T00:10:29.522Z,13.00
2023-04-22T00:12:57.212Z,13.02
2023-04-22T00:15:26.611Z,12.62
2023-04-22T00:17:54.582Z,12.41
2023-04-22T00:20:23.878Z,12.54
2023-04-22T00:22:51.679Z,12.27
2023-04-22T00:25:19.484Z,12.03
2023-04-22T00:27:47.267Z,12.17
2023-04-22T00:30:15.318Z,12.31
2023-04-22T00:32:43.157Z,12.07
2023-04-22T00:35:11.115Z,11.94
2023-04-22T00:37:40.250Z,11.73
2023-04-22T00:40:09.333Z,11.96
2023-04-22T00:42:38.362Z,12.31
2023-04-22T00:45:06.979Z,12.33
2023-04-22T00:47:34.743Z,12.18
2023-04-22T00:50:02.721Z,11.94
2023-04-22T00:52:30.496Z,11.60
2023-04-22T00:54:59.567Z,11.67
2023-04-22T00:57:27.812Z,11.61
2023-04-22T00:59:55.512Z,11.96
2023-04-22T01:02:23.405Z,12.05
2023-04-22T01:04:51.194Z,12.10
2023-04-22T01:07:18.966Z,12.18
2023-04-22T01:09:46.959Z,12.17
2023-04-22T01:12:15.942Z,11.93
2023-04-22T01:14:43.740Z,11.94
2023-04-22T01:17:13.858Z,12.07
2023-04-22T01:19:42.592Z,12.10
2023-04-22T01:22:13.022Z,12.11
2023-04-22T01:24:42.302Z,12.12
2023-04-22T01:27:10.515Z,12.10
2023-04-22T01:29:39.174Z,12.12
2023-04-22T01:32:07.673Z,12.11
2023-04-22T01:34:35.561Z,11.93
2023-04-22T01:37:03.361Z,12.03
2023-04-22T01:39:31.481Z,12.04
2023-04-22T01:42:02.183Z,12.01
2023-04-22T01:44:30.057Z,11.98
2023-04-22T01:46:57.869Z,11.94
2023-04-22T01:49:25.566Z,11.92
2023-04-22T01:51:53.301Z,11.98
2023-04-22T01:54:21.034Z,11.65
2023-04-22T01:56:52.654Z,11.46
2023-04-22T01:59:22.034Z,11.79
2023-04-22T02:01:50.137Z,11.59
2023-04-22T02:04:18.009Z,11.75
2023-04-22T02:06:45.714Z,11.64
2023-04-22T02:09:13.419Z,11.80
2023-04-22T02:11:41.077Z,11.87
2023-04-22T02:14:08.808Z,11.77
2023-04-22T02:16:37.854Z,11.71
2023-04-22T02:19:05.526Z,11.80
2023-04-22T02:21:33.423Z,11.62
2023-04-22T02:24:01.184Z,11.60
2023-04-22T02:26:30.560Z,11.73
2023-04-22T02:28:58.238Z,11.69
2023-04-22T02:31:26.161Z,11.55
2023-04-22T02:33:55.360Z,11.39
2023-04-22T02:36:23.077Z,11.70
2023-04-22T02:38:50.949Z,11.69
2023-04-22T02:41:18.731Z,11.66
2023-04-22T02:43:47.004Z,11.63
2023-04-22T02:46:16.229Z,11.71
2023-04-22T02:48:44.198Z,11.58
2023-04-22T02:51:13.478Z,11.55
2023-04-22T02:53:41.227Z,11.27
2023-04-22T02:56:09.600Z,11.56
2023-04-22T02:58:37.312Z,11.53
2023-04-22T03:01:05.150Z,11.58
2023-04-22T03:03:33.078Z,11.56
2023-04-22T03:06:00.981Z,11.40
2023-04-22T03:08:30.067Z,11.14
2023-04-22T03:10:57.824Z,11.28
2023-04-22T03:13:25.602Z,11.28
2023-04-22T03:15:53.393Z,11.34
2023-04-22T03:18:21.099Z,11.24
2023-04-22T03:20:49.152Z,11.28
2023-04-22T03:23:16.974Z,11.27
2023-04-22T03:25:46.097Z,11.38
2023-04-22T03:28:13.849Z,11.43
2023-04-22T03:30:41.633Z,11.56
2023-04-22T03:33:09.472Z,11.11
2023-04-22T03:35:37.202Z,11.12
2023-04-22T03:38:04.940Z,11.17
2023-04-22T03:40:32.619Z,11.06
2023-04-22T03:43:01.683Z,11.28
2023-04-22T03:45:30.098Z,11.51
2023-04-22T03:47:57.889Z,11.68
2023-04-22T03:50:26.151Z,11.71
2023-04-22T03:52:53.854Z,11.32
2023-04-22T03:55:21.722Z,11.32
2023-04-22T03:57:49.453Z,11.47
2023-04-22T04:00:18.754Z,11.56
2023-04-22T04:02:46.809Z,11.77
2023-04-22T04:05:15.021Z,11.86
2023-04-22T04:07:42.722Z,11.80
2023-04-22T04:10:12.289Z,11.87
2023-04-22T04:12:39.957Z,11.91
2023-04-22T04:15:08.873Z,11.94
2023-04-22T04:17:37.926Z,12.06
2023-04-22T04:20:07.115Z,11.91
2023-04-22T04:22:35.146Z,12.09
2023-04-22T04:25:03.418Z,12.03
2023-04-22T04:27:31.075Z,12.18
2023-04-22T04:29:58.743Z,12.24
2023-04-22T04:32:27.034Z,12.42
2023-04-22T04:34:57.649Z,12.40
2023-04-22T04:37:25.318Z,12.55
2023-04-22T04:39:53.718Z,12.57
2023-04-22T04:42:24.425Z,12.30
2023-04-22T04:44:52.134Z,12.25
2023-04-22T04:47:20.114Z,12.16
2023-04-22T04:49:47.803Z,12.17
2023-04-22T04:52:16.863Z,12.24
2023-04-22T04:54:44.604Z,12.31
2023-04-22T04:57:12.272Z,12.39
2023-04-22T04:59:40.155Z,12.38
2023-04-22T05:02:08.535Z,12.42
2023-04-22T05:04:36.372Z,12.54
2023-04-22T05:07:04.320Z,12.46
2023-04-22T05:09:37.409Z,12.57
2023-04-22T05:12:05.735Z,12.67
2023-04-22T05:14:33.474Z,12.74
2023-04-22T05:17:01.422Z,12.75
2023-04-22T05:19:29.081Z,12.90
2023-04-22T05:21:56.776Z,12.92
2023-04-22T05:24:24.406Z,12.89
2023-04-22T05:26:53.437Z,13.00
2023-04-22T05:29:21.073Z,13.01
2023-04-22T05:31:48.804Z,13.11
2023-04-22T05:34:16.620Z,13.23
2023-04-22T05:36:44.387Z,13.11
2023-04-22T05:39:12.912Z,13.31
2023-04-22T05:41:40.643Z,13.36
2023-04-22T05:44:09.674Z,13.42
2023-04-22T05:46:37.457Z,13.37
2023-04-22T05:49:05.197Z,13.51
2023-04-22T05:51:32.945Z,13.45
2023-04-22T05:54:01.064Z,13.44
2023-04-22T05:56:29.079Z,13.04
2023-04-22T05:58:56.801Z,13.13
2023-04-22T06:01:25.941Z,13.38
2023-04-22T06:03:53.730Z,13.47
2023-04-22T06:06:21.635Z,13.60
2023-04-22T06:08:49.342Z,13.75
2023-04-22T06:11:17.080Z,13.79
2023-04-22T06:13:44.716Z,13.74
2023-04-22T06:16:12.444Z,13.89
2023-04-22T06:18:43.468Z,14.05
2023-04-22T06:21:11.468Z,14.14
2023-04-22T06:23:39.312Z,14.20
2023-04-22T06:26:07.144Z,14.26
2023-04-22T06:28:34.845Z,14.35
2023-04-22T06:31:03.469Z,14.53
2023-04-22T06:33:31.206Z,14.66
2023-04-22T06:36:00.260Z,14.84
2023-04-22T06:38:27.992Z,14.19
2023-04-22T06:40:55.646Z,14.68
2023-04-22T06:43:23.288Z,14.71
2023-04-22T06:45:51.366Z,14.62
2023-04-22T06:48:19.118Z,15.09
2023-04-22T06:50:46.785Z,15.10
2023-04-22T06:53:16.004Z,15.39
2023-04-22T06:55:43.723Z,15.29
2023-04-22T06:58:11.390Z,15.33
2023-04-22T07:00:39.023Z,15.36
2023-04-22T07:03:06.759Z,15.54
2023-04-22T07:05:34.674Z,15.61
2023-04-22T07:08:02.338Z,15.72
2023-04-22T07:10:31.446Z,15.91
2023-04-22T07:12:59.070Z,16.16
2023-04-22T07:15:26.831Z,16.33
2023-04-22T07:17:54.624Z,16.39
2023-04-22T07:20:22.423Z,16.58
2023-04-22T07:22:50.156Z,16.94
2023-04-22T07:25:18.039Z,17.30
2023-04-22T07:27:47.173Z,17.66
2023-04-22T07:30:15.213Z,17.95
2023-04-22T07:32:42.882Z,18.07
2023-04-22T07:35:10.945Z,18.17
2023-04-22T07:37:38.677Z,18.37
2023-04-22T07:40:11.668Z,18.49
2023-04-22T07:42:39.726Z,18.49
2023-04-22T07:45:09.752Z,18.81
2023-04-22T07:47:37.559Z,18.86
2023-04-22T07:50:49.987Z,18.91
2023-04-22T07:53:17.746Z,18.91
2023-04-22T07:55:46.288Z,18.89
2023-04-22T07:58:13.959Z,18.63
2023-04-22T08:00:41.694Z,18.94
2023-04-22T08:03:09.795Z,19.09
2023-04-22T08:05:37.716Z,19.20
2023-04-22T08:08:07.249Z,19.22
2023-04-22T08:10:34.931Z,18.97
2023-04-22T08:13:02.710Z,19.15
2023-04-22T08:15:30.619Z,18.86
2023-04-22T08:17:58.464Z,19.03
2023-04-22T08:20:26.813Z,19.09
2023-04-22T08:22:58.180Z,19.26
2023-04-22T08:25:27.437Z,19.11
2023-04-22T08:27:55.152Z,19.12
2023-04-22T08:30:22.928Z,18.99
2023-04-22T08:32:52.998Z,18.68
2023-04-22T08:35:20.816Z,18.30
2023-04-22T08:37:48.599Z,18.51
2023-04-22T08:40:16.325Z,18.31
2023-04-22T08:42:46.261Z,18.41
2023-04-22T08:45:14.685Z,18.82
2023-04-22T08:47:42.530Z,18.58
2023-04-22T08:50:10.776Z,18.72
2023-04-22T08:52:38.736Z,18.74
2023-04-22T08:55:07.597Z,19.10
2023-04-22T08:57:37.335Z,19.36
2023-04-22T09:00:08.725Z,19.45
2023-04-22T09:02:38.126Z,19.65
2023-04-22T09:05:07.672Z,19.49
2023-04-22T09:07:36.459Z,19.74
2023-04-22T09:10:04.326Z,19.86
2023-04-22T09:12:32.081Z,20.10
2023-04-22T09:14:59.747Z,20.25
2023-04-22T09:17:38.166Z,20.46
2023-04-22T09:20:08.796Z,19.90
2023-04-22T09:22:41.148Z,20.29
2023-04-22T09:25:16.807Z,20.51
2023-04-22T09:27:44.635Z,20.30
2023-04-22T09:30:14.702Z,20.37
2023-04-22T09:32:43.808Z,20.86
2023-04-22T09:35:11.603Z,21.41
2023-04-22T09:37:48.887Z,21.73
2023-04-22T09:40:18.023Z,20.91
2023-04-22T09:42:49.938Z,21.73
2023-04-22T09:45:28.465Z,21.63
2023-04-22T09:47:58.456Z,21.91
2023-04-22T09:50:27.786Z,21.93
2023-04-22T09:52:57.142Z,22.08
2023-04-22T09:55:26.354Z,22.16
2023-04-22T09:57:55.136Z,22.35
2023-04-22T10:00:24.153Z,22.21
2023-04-22T10:02:52.069Z,22.38
2023-04-22T10:05:21.893Z,22.63
2023-04-22T10:07:49.736Z,22.68
2023-04-22T10:10:17.575Z,22.90
2023-04-22T10:12:45.638Z,22.98
2023-04-22T10:15:13.431Z,22.88
2023-04-22T10:17:41.688Z,22.53
2023-04-22T10:20:14.456Z,22.56
2023-04-22T10:22:43.989Z,22.56
2023-04-22T10:25:15.511Z,23.01
2023-04-22T10:27:43.220Z,23.11
2023-04-22T10:30:12.561Z,22.86
2023-04-22T10:32:40.337Z,23.07
2023-04-22T10:35:12.996Z,23.22
2023-04-22T10:37:46.021Z,23.11
2023-04-22T10:40:17.232Z,22.83
2023-04-22T10:42:52.236Z,22.59
2023-04-22T10:45:20.864Z,22.62
2023-04-22T10:47:48.621Z,22.36
2023-04-22T10:50:22.653Z,22.70
2023-04-22T10:52:53.814Z,22.33
2023-04-22T10:55:21.781Z,22.08
2023-04-22T10:57:51.221Z,22.34
2023-04-22T11:00:53.011Z,22.56
2023-04-22T11:03:27.652Z,22.31
2023-04-22T11:06:17.399Z,22.35
2023-04-22T11:08:48.130Z,22.51
2023-04-22T11:11:18.510Z,22.74
2023-04-22T11:13:50.576Z,23.09
2023-04-22T11:16:20.470Z,23.14
2023-04-22T11:18:49.384Z,23.33
2023-04-22T11:21:17.366Z,23.36
2023-04-22T11:23:53.006Z,23.76
2023-04-22T11:26:33.981Z,23.78
2023-04-22T11:29:01.766Z,24.30
2023-04-22T11:31:29.444Z,24.58
2023-04-22T11:33:59.912Z,24.61
2023-04-22T11:36:27.690Z,24.79
2023-04-22T11:38:57.154Z,24.82
2023-04-22T11:41:26.034Z,24.62
2023-04-22T11:43:54.846Z,24.63
2023-04-22T11:46:30.084Z,24.69
2023-04-22T11:49:12.758Z,24.81
2023-04-22T11:51:53.430Z,24.76
2023-04-22T11:54:34.778Z,24.75
2023-04-22T11:57:04.373Z,24.54
2023-04-22T11:59:32.162Z,24.51
2023-04-22T12:01:59.913Z,23.92
2023-04-22T12:04:27.714Z,24.20
2023-04-22T12:06:55.486Z,24.26
2023-04-22T12:09:25.825Z,24.67
2023-04-22T12:11:54.955Z,24.24
2023-04-22T12:14:22.800Z,24.23
2023-04-22T12:16:51.788Z,24.21
2023-04-22T12:19:26.801Z,24.01
2023-04-22T12:21:56.603Z,24.27
2023-04-22T12:24:29.027Z,24.34
2023-04-22T12:26:58.727Z,24.02
2023-04-22T12:29:32.527Z,24.29
2023-04-22T12:32:00.472Z,24.53
2023-04-22T12:34:28.229Z,24.82
2023-04-22T12:36:56.362Z,24.67
2023-04-22T12:39:24.140Z,24.33
2023-04-22T12:41:51.836Z,24.40
2023-04-22T12:44:21.726Z,24.88
2023-04-22T12:46:51.350Z,25.07
2023-04-22T12:49:19.148Z,25.18
2023-04-22T12:51:46.929Z,25.51
2023-04-22T12:54:14.619Z,25.51
2023-04-22T12:56:42.327Z,25.92
2023-04-22T12:59:10.013Z,26.22
2023-04-22T13:01:39.231Z,26.45
2023-04-22T13:04:07.597Z,26.22
2023-04-22T13:06:36.293Z,26.36
2023-04-22T13:09:04.426Z,26.53
2023-04-22T13:11:32.277Z,26.45
2023-04-22T13:14:00.024Z,26.47
2023-04-22T13:16:27.818Z,26.42
2023-04-22T13:18:56.891Z,26.17
2023-04-22T13:21:24.616Z,25.96
2023-04-22T13:23:53.171Z,25.67
2023-04-22T13:26:21.042Z,25.40
2023-04-22T13:28:48.826Z,25.51
2023-04-22T13:31:16.783Z,25.51
2023-04-22T13:33:45.077Z,25.04
2023-04-22T13:36:14.132Z,24.98
2023-04-22T13:38:41.907Z,24.52
2023-04-22T13:41:09.684Z,23.63
2023-04-22T13:43:37.961Z,23.47
2023-04-22T13:46:06.552Z,23.22
2023-04-22T13:48:34.272Z,22.94
2023-04-22T13:51:01.950Z,23.15
2023-04-22T13:53:32.379Z,23.55
2023-04-22T13:56:01.198Z,23.50
2023-04-22T13:58:28.919Z,23.83
2023-04-22T14:00:56.611Z,24.31
2023-04-22T14:03:24.792Z,24.83
2023-04-22T14:05:52.786Z,25.25
2023-04-22T14:08:20.513Z,25.33
2023-04-22T14:10:49.662Z,25.67
2023-04-22T14:13:17.433Z,25.80
2023-04-22T14:15:45.152Z,25.76
2023-04-22T14:18:12.932Z,26.30
2023-04-22T14:20:41.207Z,26.00
2023-04-22T14:23:08.897Z,26.00
2023-04-22T14:25:36.622Z,25.99
2023-04-22T14:28:05.721Z,25.83
2023-04-22T14:30:33.630Z,26.13
2023-04-22T14:33:01.579Z,26.04
2023-04-22T14:35:29.769Z,25.99
2023-04-22T14:37:57.476Z,25.52
2023-04-22T14:40:28.118Z,24.74
2023-04-22T14:42:55.902Z,24.61
2023-04-22T14:45:25.497Z,24.77
2023-04-22T14:47:53.848Z,24.36
2023-04-22T14:50:21.812Z,24.19
2023-04-22T14:52:49.631Z,23.83
2023-04-22T14:55:23.113Z,23.50
2023-04-22T14:57:56.811Z,22.64
2023-04-22T15:00:26.754Z,22.40
2023-04-22T15:02:55.288Z,22.61
2023-04-22T15:05:23.662Z,22.91
2023-04-22T15:07:51.480Z,22.63
2023-04-22T15:10:19.598Z,22.83
2023-04-22T15:12:47.337Z,22.84
2023-04-22T15:15:16.096Z,22.56
2023-04-22T15:17:45.724Z,22.21
2023-04-22T15:20:13.877Z,22.01
2023-04-22T15:22:42.205Z,21.14
2023-04-22T15:25:10.909Z,20.90
2023-04-22T15:27:39.121Z,21.00
2023-04-22T15:30:08.530Z,20.31
2023-04-22T15:32:37.120Z,20.21
2023-04-22T15:35:07.351Z,19.97
2023-04-22T15:37:35.181Z,19.49
2023-04-22T15:40:03.652Z,18.50
2023-04-22T15:42:31.439Z,19.28
2023-04-22T15:44:59.226Z,18.99
2023-04-22T15:47:29.046Z,18.29
2023-04-22T15:49:57.391Z,18.75
2023-04-22T15:52:26.429Z,18.92
2023-04-22T15:54:54.154Z,18.58
2023-04-22T15:57:21.850Z,18.86
2023-04-22T15:59:56.259Z,19.00
2023-04-22T16:02:31.077Z,18.91
2023-04-22T16:04:58.906Z,19.11
2023-04-22T16:07:27.975Z,19.60
2023-04-22T16:09:55.724Z,19.25
2023-04-22T16:12:23.852Z,19.70
2023-04-22T16:14:51.692Z,19.46
2023-04-22T16:17:20.137Z,19.36
2023-04-22T16:19:47.911Z,19.19
2023-04-22T16:22:15.739Z,19.19
2023-04-22T16:24:44.757Z,18.85
2023-04-22T16:27:16.256Z,19.19
2023-04-22T16:29:44.494Z,18.84
2023-04-22T16:32:12.168Z,19.15
2023-04-22T16:34:39.948Z,19.25
2023-04-22T16:37:07.798Z,19.10
2023-04-22T16:39:35.532Z,19.04
2023-04-22T16:42:04.666Z,19.06
2023-04-22T16:44:32.391Z,19.18
2023-04-22T16:47:00.186Z,19.07
2023-04-22T16:49:27.871Z,19.18
2023-04-22T16:51:55.710Z,19.18
2023-04-22T16:54:23.493Z,19.22
2023-04-22T16:56:51.186Z,19.24
2023-04-22T16:59:20.255Z,19.39
2023-04-22T17:01:48.056Z,19.49
2023-04-22T17:04:16.104Z,19.35
2023-04-22T17:06:45.717Z,19.24
2023-04-22T17:09:13.465Z,19.35
2023-04-22T17:11:41.210Z,19.33
2023-04-22T17:14:08.953Z,19.21
2023-04-22T17:16:38.404Z,19.36
2023-04-22T17:19:06.081Z,19.35
2023-04-22T17:21:34.212Z,19.17
2023-04-22T17:24:03.813Z,19.18
2023-04-22T17:26:31.558Z,19.24
2023-04-22T17:28:59.324Z,19.12
2023-04-22T17:31:27.546Z,19.21
2023-04-22T17:33:56.671Z,18.91
2023-04-22T17:36:24.469Z,18.58
2023-04-22T17:38:52.189Z,18.56
2023-04-22T17:41:19.863Z,18.46
2023-04-22T17:43:47.587Z,18.39
2023-04-22T17:46:15.783Z,18.41
2023-04-22T17:48:46.529Z,18.45
2023-04-22T17:51:15.842Z,18.50
2023-04-22T17:53:43.560Z,18.56
2023-04-22T17:56:11.353Z,18.53
2023-04-22T17:58:39.185Z,18.50
2023-04-22T18:01:07.328Z,18.23
2023-04-22T18:03:35.678Z,18.23
2023-04-22T18:06:03.547Z,18.27
2023-04-22T18:08:32.637Z,18.19
2023-04-22T18:11:02.096Z,18.10
2023-04-22T18:13:29.834Z,18.02
2023-04-22T18:15:57.482Z,18.08
2023-04-22T18:18:25.232Z,18.02
2023-04-22T18:20:53.034Z,18.03
2023-04-22T18:23:21.204Z,18.00
2023-04-22T18:25:50.309Z,17.93
2023-04-22T18:28:18.067Z,17.93
2023-04-22T18:30:45.747Z,17.61
2023-04-22T18:33:13.468Z,17.37
2023-04-22T18:35:42.037Z,17.33
2023-04-22T18:38:09.791Z,17.25
2023-04-22T18:40:37.455Z,17.62
2023-04-22T18:43:06.536Z,17.60
2023-04-22T18:45:34.274Z,17.55
2023-04-22T18:48:02.116Z,17.21
2023-04-22T18:50:30.019Z,17.01
2023-04-22T18:52:57.660Z,17.47
2023-04-22T18:55:25.470Z,17.62
2023-04-22T18:57:53.209Z,17.79
2023-04-22T19:00:22.471Z,17.74
2023-04-22T19:02:50.370Z,17.84
2023-04-22T19:05:18.164Z,17.83
2023-04-22T19:07:45.883Z,17.51
2023-04-22T19:10:13.770Z,16.86
2023-04-22T19:12:41.618Z,15.96
2023-04-22T19:15:10.085Z,15.55
2023-04-22T19:17:39.293Z,14.76
2023-04-22T19:20:08.507Z,14.41
2023-04-22T19:22:36.413Z,14.55
2023-04-22T19:25:06.411Z,14.50
2023-04-22T19:27:34.533Z,14.48
2023-04-22T19:30:02.270Z,14.57
2023-04-22T19:32:30.058Z,14.56
2023-04-22T19:34:59.601Z,14.51
2023-04-22T19:37:28.281Z,14.07
2023-04-22T19:39:56.035Z,14.36
2023-04-22T19:42:23.752Z,14.22
2023-04-22T19:44:52.016Z,14.45
2023-04-22T19:47:20.103Z,14.32
2023-04-22T19:49:48.302Z,14.26
2023-04-22T19:52:17.522Z,14.19
2023-04-22T19:54:47.854Z,14.08
2023-04-22T19:57:16.117Z,14.43
2023-04-22T19:59:44.747Z,14.27
2023-04-22T20:02:14.212Z,14.11
2023-04-22T20:04:42.712Z,14.48
2023-04-22T20:07:11.934Z,14.25
2023-04-22T20:09:41.399Z,14.05
2023-04-22T20:12:09.535Z,13.88
2023-04-22T20:14:37.978Z,13.80
2023-04-22T20:17:07.361Z,13.62
2023-04-22T20:19:35.331Z,13.73
2023-04-22T20:22:04.009Z,13.23
2023-04-22T20:24:33.040Z,13.28
2023-04-22T20:27:02.334Z,13.49
2023-04-22T20:29:31.118Z,13.41
2023-04-22T20:31:59.250Z,12.97
2023-04-22T20:34:27.649Z,13.09
2023-04-22T20:36:55.476Z,13.12
2023-04-22T20:39:23.663Z,12.90
2023-04-22T20:41:56.315Z,13.00
2023-04-22T20:44:26.106Z,12.99
2023-04-22T20:46:55.779Z,12.99
2023-04-22T20:49:23.508Z,13.28
2023-04-22T20:51:51.301Z,12.92
2023-04-22T20:54:28.507Z,13.27
2023-04-22T20:56:57.794Z,13.38
2023-04-22T20:59:26.908Z,12.77
2023-04-22T21:01:55.403Z,12.80
2023-04-22T21:04:24.130Z,12.77
2023-04-22T21:06:52.499Z,12.61
2023-04-22T21:09:21.716Z,12.73
2023-04-22T21:11:51.178Z,12.62
2023-04-22T21:14:20.918Z,12.79
2023-04-22T21:16:55.105Z,12.64
2023-04-22T21:19:23.442Z,12.64
2023-04-22T21:21:52.387Z,12.91
2023-04-22T21:24:21.040Z,13.07
2023-04-22T21:26:48.938Z,13.01
2023-04-22T21:29:17.130Z,12.77
2023-04-22T21:31:51.582Z,13.15
2023-04-22T21:34:26.918Z,13.27
2023-04-22T21:36:54.688Z,13.54
2023-04-22T21:39:22.409Z,13.64
2023-04-22T21:41:50.227Z,13.60
2023-04-22T21:44:17.899Z,13.50
2023-04-22T21:46:46.514Z,13.39
2023-04-22T21:49:14.234Z,13.71
2023-04-22T21:51:43.375Z,13.68
2023-04-22T21:54:11.131Z,13.54
2023-04-22T21:56:38.872Z,13.40
2023-04-22T21:59:06.656Z,13.12
2023-04-22T22:01:34.493Z,13.02
2023-04-22T22:04:04.108Z,13.19
2023-04-22T22:06:33.326Z,13.08
2023-04-22T22:09:02.516Z,13.06
2023-04-22T22:11:31.481Z,12.86
2023-04-22T22:13:59.482Z,12.82
2023-04-22T22:16:27.391Z,13.01
2023-04-22T22:18:55.714Z,12.89
2023-04-22T22:21:23.574Z,12.88
2023-04-22T22:23:51.825Z,12.75
2023-04-22T22:26:21.372Z,12.99
2023-04-22T22:28:49.211Z,12.80
2023-04-22T22:31:16.908Z,12.65
2023-04-22T22:33:45.026Z,12.35
2023-04-22T22:36:12.848Z,12.42
2023-04-22T22:38:40.669Z,12.40
2023-04-22T22:41:08.356Z,12.02
2023-04-22T22:43:37.383Z,12.13
2023-04-22T22:46:05.256Z,12.19
2023-04-22T22:48:33.216Z,11.91
2023-04-22T22:51:01.702Z,11.83
2023-04-22T22:53:29.419Z,11.97
2023-04-22T22:55:57.124Z,11.76
2023-04-22T22:58:24.906Z,11.68
2023-04-22T23:00:54.107Z,11.90
2023-04-22T23:03:22.085Z,11.88
2023-04-22T23:05:49.826Z,11.89
2023-04-22T23:08:17.600Z,11.82
2023-04-22T23:10:45.287Z,11.77
2023-04-22T23:13:12.967Z,11.64
2023-04-22T23:15:40.837Z,11.71
2023-04-22T23:18:10.600Z,11.63
2023-04-22T23:20:38.419Z,11.69
2023-04-22T23:23:06.436Z,11.70
2023-04-22T23:25:34.715Z,11.64
2023-04-22T23:28:03.626Z,11.57
2023-04-22T23:30:31.886Z,11.64
2023-04-22T23:33:02.690Z,11.69
2023-04-22T23:35:34.488Z,11.76
2023-04-22T23:38:05.438Z,11.82
2023-04-22T23:40:33.129Z,11.78
2023-04-22T23:43:00.805Z,11.73
2023-04-22T23:45:28.535Z,11.78
2023-04-22T23:47:56.247Z,11.70
2023-04-22T23:50:23.998Z,11.72
2023-04-22T23:52:53.119Z,11.64
2023-04-22T23:55:21.483Z,11.66
2023-04-22T23:57:49.937Z,11.64
